Terminal Aerodrome Forecast
Issued by NWS

Home | Current Version | Previous Version | Text Only | Print | Product List | Glossary On
Versions: 1 2 3 4 5 6 7 8 9 10 11 12 13 14 15
000
FTUS44 KLIX 301120
TAFMCB
TAF
KMCB 301120Z 3012/3112 00000KT P6SM SKC
     FM301500 VRB03KT P6SM VCTS FEW090CB SCT250
     FM310000 00000KT P6SM BKN200=

USA.gov is the U.S. government's official web portal to all federal, state and local government web resources and services.